Time;durP1;ratioP1;P1;durP2;ratioP2;P2;SDS_P1;SDS_P2;PMS_P1;PMS_P2;Temp;Humidity;BMP_temperature;BMP_pressure;BME280_temperature;BME280_humidity;BME280_pressure;Samples;Min_cycle;Max_cycle;Signal;HPM_P1;HPM_P2
2020/12/11 00:00:59;;;;;;;30.07;16.27;;;1.70;90.40;;;;;;5052679;28;20040;-75
2020/12/11 00:03:25;;;;;;;27.87;16.73;;;1.70;90.40;;;;;;5036023;28;20480;-74
2020/12/11 00:05:51;;;;;;;28.50;16.67;;;1.60;90.40;;;;;;5054524;28;20500;-83
2020/12/11 00:08:16;;;;;;;30.20;17.77;;;1.60;90.40;;;;;;5053828;28;20021;-82
2020/12/11 00:10:42;;;;;;;28.97;16.23;;;1.60;90.50;;;;;;5055300;28;20032;-83
2020/12/11 00:13:07;;;;;;;31.03;15.93;;;1.60;90.50;;;;;;5055925;28;20052;-82
2020/12/11 00:15:33;;;;;;;28.20;16.07;;;1.60;90.50;;;;;;5054377;28;20029;-82
2020/12/11 00:17:59;;;;;;;34.70;17.30;;;1.60;90.50;;;;;;5055535;28;20112;-83
2020/12/11 00:20:24;;;;;;;27.37;16.30;;;1.60;90.50;;;;;;5035731;28;20029;-82
2020/12/11 00:22:50;;;;;;;30.67;16.93;;;1.60;90.50;;;;;;5052362;28;20021;-83
2020/12/11 00:25:15;;;;;;;30.13;15.37;;;1.70;90.60;;;;;;5052538;28;20051;-82
2020/12/11 00:27:41;;;;;;;27.33;16.00;;;1.70;90.60;;;;;;5053771;28;20029;-83
2020/12/11 00:30:06;;;;;;;28.50;16.87;;;1.70;90.60;;;;;;5068854;28;20025;-83
2020/12/11 00:32:35;;;;;;;28.83;17.23;;;1.70;90.60;;;;;;5052247;28;20052;-82
2020/12/11 00:35:01;;;;;;;25.73;15.43;;;1.70;90.50;;;;;;5068718;28;20369;-82
2020/12/11 00:37:26;;;;;;;27.67;16.27;;;1.70;90.50;;;;;;5053240;28;20033;-83
2020/12/11 00:39:52;;;;;;;29.23;15.77;;;1.70;90.60;;;;;;5052543;28;20061;-75
2020/12/11 00:42:21;;;;;;;27.93;15.97;;;1.70;90.60;;;;;;5068543;28;20078;-75
2020/12/11 00:44:47;;;;;;;28.77;17.03;;;1.90;90.60;;;;;;5068762;28;20032;-75
2020/12/11 00:47:13;;;;;;;31.50;18.67;;;1.80;90.50;;;;;;5053177;28;20484;-75
2020/12/11 00:49:38;;;;;;;28.83;16.50;;;1.80;90.50;;;;;;5052404;28;20113;-76
2020/12/11 00:52:04;;;;;;;27.57;15.87;;;1.80;90.50;;;;;;5035233;28;20035;-75
2020/12/11 00:54:29;;;;;;;26.67;14.97;;;1.80;90.50;;;;;;5068299;28;20071;-75
2020/12/11 00:56:55;;;;;;;29.27;16.83;;;1.90;90.50;;;;;;5053475;28;20021;-76
2020/12/11 00:59:20;;;;;;;28.50;16.20;;;1.80;90.40;;;;;;5052120;28;20078;-76
2020/12/11 01:01:46;;;;;;;27.63;16.77;;;1.90;90.40;;;;;;5035206;28;20025;-76
2020/12/11 01:04:11;;;;;;;30.37;17.23;;;1.80;90.30;;;;;;5068715;28;20031;-76
2020/12/11 01:06:37;;;;;;;28.13;16.50;;;1.90;90.30;;;;;;5052882;28;20082;-75
2020/12/11 01:09:04;;;;;;;29.93;16.70;;;1.90;90.30;;;;;;5051895;28;20028;-75
2020/12/11 01:11:30;;;;;;;32.53;17.40;;;1.90;90.30;;;;;;5055879;28;20029;-75
2020/12/11 01:13:55;;;;;;;29.43;17.27;;;1.90;90.30;;;;;;5072513;28;20017;-76
2020/12/11 01:16:21;;;;;;;29.73;17.53;;;1.90;90.30;;;;;;5055828;28;20036;-75
2020/12/11 01:18:47;;;;;;;32.80;17.03;;;1.90;90.20;;;;;;5056798;28;20067;-75
2020/12/11 01:21:12;;;;;;;31.10;17.60;;;1.90;90.20;;;;;;5038644;28;20071;-76
2020/12/11 01:23:38;;;;;;;33.33;17.40;;;1.90;90.20;;;;;;5072072;28;20020;-76
2020/12/11 01:26:07;;;;;;;31.57;17.87;;;2.00;90.20;;;;;;5055620;28;20542;-76
2020/12/11 01:28:33;;;;;;;31.13;17.77;;;1.90;90.20;;;;;;5056900;28;20024;-76
2020/12/11 01:30:58;;;;;;;33.97;19.20;;;1.90;90.10;;;;;;5055227;28;20036;-75
2020/12/11 01:33:24;;;;;;;31.77;18.33;;;1.90;90.10;;;;;;5055476;28;20029;-75
2020/12/11 01:35:50;;;;;;;29.40;17.57;;;1.90;90.10;;;;;;5071714;28;20120;-75
2020/12/11 01:38:15;;;;;;;31.70;18.20;;;1.90;90.10;;;;;;5055448;28;20060;-76
2020/12/11 01:40:41;;;;;;;30.30;17.53;;;1.80;90.10;;;;;;5056328;28;20028;-76
2020/12/11 01:43:06;;;;;;;32.83;19.10;;;1.80;90.10;;;;;;5038804;28;20025;-75
2020/12/11 01:45:32;;;;;;;31.57;18.30;;;1.80;90.10;;;;;;5056426;28;20125;-75
2020/12/11 01:47:58;;;;;;;31.37;18.87;;;1.80;90.20;;;;;;5072100;28;20115;-75
2020/12/11 01:50:24;;;;;;;29.33;17.00;;;1.80;90.00;;;;;;5054931;28;20091;-76
2020/12/11 01:52:51;;;;;;;31.80;18.27;;;1.80;90.00;;;;;;5056341;28;20368;-75
2020/12/11 01:55:17;;;;;;;32.20;17.10;;;1.80;90.10;;;;;;5071388;28;20500;-75
2020/12/11 01:57:50;;;;;;;28.17;16.63;;;1.80;90.10;;;;;;5054935;28;20032;-76
2020/12/11 02:00:19;;;;;;;29.67;17.27;;;1.80;90.10;;;;;;5056415;28;20044;-76
2020/12/11 02:02:46;;;;;;;34.23;18.73;;;1.80;90.10;;;;;;5055942;28;20384;-76
2020/12/11 02:05:12;;;;;;;29.03;17.20;;;1.80;90.20;;;;;;5038103;28;20487;-75
2020/12/11 02:07:38;;;;;;;31.23;18.07;;;1.80;90.10;;;;;;5071274;28;20017;-75
2020/12/11 02:10:05;;;;;;;28.93;16.43;;;1.80;90.10;;;;;;5071226;28;20025;-75
2020/12/11 02:12:31;;;;;;;36.53;18.83;;;1.70;90.10;;;;;;5054520;28;20075;-76
2020/12/11 02:14:57;;;;;;;32.90;19.63;;;1.70;90.10;;;;;;5054548;28;20021;-76
2020/12/11 02:17:26;;;;;;;32.30;17.47;;;1.70;90.10;;;;;;5071253;28;20017;-75
2020/12/11 02:19:55;;;;;;;32.23;17.73;;;1.70;90.10;;;;;;5054251;28;20079;-75
2020/12/11 02:22:21;;;;;;;28.67;16.87;;;1.70;90.10;;;;;;5070906;28;20143;-75
2020/12/11 02:24:48;;;;;;;30.07;17.23;;;1.70;90.20;;;;;;5054374;28;20053;-76
2020/12/11 02:27:13;;;;;;;28.90;16.80;;;1.70;90.20;;;;;;5070945;28;20028;-75
2020/12/11 02:29:39;;;;;;;33.27;17.90;;;1.60;90.20;;;;;;5054376;28;20108;-76
2020/12/11 02:32:04;;;;;;;29.00;16.67;;;1.60;90.20;;;;;;5037533;28;20388;-83
2020/12/11 02:34:30;;;;;;;32.37;17.43;;;1.60;90.20;;;;;;5054280;28;20083;-83
2020/12/11 02:37:05;;;;;;;36.03;18.47;;;1.60;90.50;;;;;;5037799;28;20029;-83
2020/12/11 02:39:31;;;;;;;35.00;18.67;;;1.60;90.30;;;;;;5055409;28;20108;-84
2020/12/11 02:41:56;;;;;;;33.30;18.73;;;1.60;90.30;;;;;;5070999;28;20115;-83
2020/12/11 02:44:22;;;;;;;29.80;17.50;;;1.50;90.30;;;;;;5055354;28;20036;-83
2020/12/11 02:46:48;;;;;;;34.27;18.10;;;1.50;90.30;;;;;;5055148;28;20443;-83
2020/12/11 02:49:13;;;;;;;33.93;18.47;;;1.50;90.30;;;;;;5055166;28;20035;-83
2020/12/11 02:51:39;;;;;;;33.87;18.53;;;1.50;90.30;;;;;;5070478;28;20021;-83
2020/12/11 02:54:05;;;;;;;31.10;17.90;;;1.50;90.30;;;;;;5054859;28;20492;-83
2020/12/11 02:56:31;;;;;;;32.73;17.87;;;1.50;90.30;;;;;;5053848;28;20052;-83
2020/12/11 02:58:56;;;;;;;30.97;17.60;;;1.40;90.30;;;;;;5055004;28;20468;-83
2020/12/11 03:01:25;;;;;;;34.13;18.37;;;1.40;90.30;;;;;;5054926;28;20389;-83
2020/12/11 03:03:51;;;;;;;29.33;16.63;;;1.30;90.40;;;;;;5054907;28;20029;-83
2020/12/11 03:06:16;;;;;;;33.23;17.57;;;1.40;90.40;;;;;;5070234;28;20139;-82
2020/12/11 03:08:42;;;;;;;34.77;18.50;;;1.40;90.40;;;;;;5053764;28;20040;-82
2020/12/11 03:11:07;;;;;;;30.87;17.43;;;1.40;90.50;;;;;;5053483;28;20033;-83
2020/12/11 03:13:33;;;;;;;32.37;17.23;;;1.40;90.50;;;;;;5036737;28;20032;-82
2020/12/11 03:15:58;;;;;;;30.73;16.43;;;1.30;90.40;;;;;;5070256;28;20025;-83
2020/12/11 03:18:24;;;;;;;26.53;15.30;;;1.30;90.40;;;;;;5053368;28;20472;-82
2020/12/11 03:20:50;;;;;;;31.07;16.37;;;1.30;90.50;;;;;;5053396;28;20071;-83
2020/12/11 03:23:15;;;;;;;32.20;16.60;;;1.30;90.50;;;;;;5053253;28;20040;-82
2020/12/11 03:25:41;;;;;;;31.97;16.73;;;1.30;90.50;;;;;;5053304;28;20029;-83
2020/12/11 03:28:06;;;;;;;33.03;17.97;;;1.30;90.50;;;;;;5069628;28;20025;-82
2020/12/11 03:30:32;;;;;;;30.53;16.63;;;1.30;90.50;;;;;;5069566;28;20032;-82
2020/12/11 03:32:58;;;;;;;28.47;16.93;;;1.30;90.50;;;;;;5035952;28;20025;-82
2020/12/11 03:35:23;;;;;;;30.70;16.80;;;1.30;90.50;;;;;;5054463;28;20495;-82
2020/12/11 03:37:49;;;;;;;29.33;16.60;;;1.20;90.80;;;;;;5054196;28;20029;-82
2020/12/11 03:40:14;;;;;;;28.80;15.67;;;1.20;90.50;;;;;;5053013;28;20480;-82
2020/12/11 03:42:40;;;;;;;31.63;15.73;;;1.20;90.60;;;;;;5054180;28;20392;-83
2020/12/11 03:45:06;;;;;;;31.40;16.80;;;1.20;90.60;;;;;;5069329;28;20090;-83
2020/12/11 03:47:32;;;;;;;28.50;15.43;;;1.20;90.60;;;;;;5069413;28;20036;-82
2020/12/11 03:49:59;;;;;;;31.07;17.00;;;1.20;90.70;;;;;;5069388;28;20021;-75
2020/12/11 03:52:29;;;;;;;28.23;15.93;;;1.20;90.70;;;;;;5036038;28;20033;-75
2020/12/11 03:54:55;;;;;;;32.17;17.50;;;1.20;90.70;;;;;;5053722;28;20127;-82
2020/12/11 03:57:20;;;;;;;30.07;16.40;;;1.20;90.70;;;;;;5069238;28;20396;-82
2020/12/11 03:59:46;;;;;;;26.13;15.43;;;1.10;90.70;;;;;;5052681;28;20037;-84
2020/12/11 04:02:13;;;;;;;29.37;16.27;;;1.10;90.70;;;;;;5072132;28;20071;-83
2020/12/11 04:04:39;;;;;;;31.83;18.23;;;1.10;90.70;;;;;;5072052;28;20089;-82
2020/12/11 04:07:05;;;;;;;30.30;17.20;;;1.10;90.70;;;;;;5071731;28;20043;-84
2020/12/11 04:09:30;;;;;;;29.77;16.90;;;1.10;90.80;;;;;;5072387;28;20123;-83
2020/12/11 04:11:56;;;;;;;30.33;17.03;;;1.10;90.90;;;;;;5072552;28;20041;-83
2020/12/11 04:14:22;;;;;;;32.13;16.80;;;1.10;90.80;;;;;;5056181;28;20024;-83
2020/12/11 04:16:50;;;;;;;31.13;16.90;;;1.10;90.80;;;;;;5073347;28;20071;-83
2020/12/11 04:19:16;;;;;;;29.63;15.80;;;1.10;90.90;;;;;;5056120;28;20025;-83
2020/12/11 04:21:52;;;;;;;31.23;17.27;;;1.10;90.80;;;;;;5073335;28;20388;-83
2020/12/11 04:24:19;;;;;;;29.27;15.80;;;1.10;90.90;;;;;;5073241;28;20105;-83
2020/12/11 04:26:45;;;;;;;31.00;17.50;;;1.10;90.90;;;;;;5073682;28;20123;-83
2020/12/11 04:29:11;;;;;;;33.50;17.83;;;1.10;91.00;;;;;;5075868;28;20063;-83
2020/12/11 04:31:37;;;;;;;30.93;17.40;;;1.10;91.00;;;;;;5076468;28;20028;-83
2020/12/11 04:34:03;;;;;;;31.87;17.40;;;1.20;91.00;;;;;;5078171;28;20024;-82
2020/12/11 04:36:29;;;;;;;30.77;17.30;;;1.20;91.00;;;;;;5058884;28;20020;-83
2020/12/11 04:38:56;;;;;;;32.43;18.20;;;1.20;91.10;;;;;;5073733;28;20031;-83
2020/12/11 04:41:26;;;;;;;35.50;19.30;;;1.30;91.10;;;;;;5072677;28;20028;-82
2020/12/11 04:43:51;;;;;;;34.73;18.70;;;1.30;91.10;;;;;;5076372;28;20032;-82
2020/12/11 04:46:17;;;;;;;32.33;17.67;;;1.30;91.10;;;;;;5080154;28;20455;-83
2020/12/11 04:48:43;;;;;;;31.90;17.63;;;1.20;91.10;;;;;;5065422;28;20053;-83
2020/12/11 04:51:09;;;;;;;29.07;17.10;;;1.30;91.10;;;;;;5081533;28;20115;-82
2020/12/11 04:53:36;;;;;;;31.47;16.97;;;1.30;91.10;;;;;;5065699;28;20032;-83
2020/12/11 04:56:06;;;;;;;32.13;18.13;;;1.30;91.30;;;;;;5076699;28;20033;-83
2020/12/11 04:58:33;;;;;;;35.63;19.13;;;1.30;91.10;;;;;;5077605;28;20036;-83
2020/12/11 05:01:06;;;;;;;36.33;19.87;;;1.30;91.00;;;;;;5075702;28;20427;-84
2020/12/11 05:03:33;;;;;;;34.33;19.53;;;1.30;91.00;;;;;;5077166;28;20061;-83
2020/12/11 05:06:00;;;;;;;36.63;21.03;;;1.30;91.10;;;;;;5077232;28;20028;-82
2020/12/11 05:08:26;;;;;;;33.73;20.50;;;1.30;91.10;;;;;;5076084;28;20028;-83
2020/12/11 05:10:52;;;;;;;32.90;20.00;;;1.30;91.10;;;;;;5076986;28;20052;-83
2020/12/11 05:13:22;;;;;;;36.07;19.70;;;1.40;91.10;;;;;;5075908;28;20025;-83
2020/12/11 05:16:09;;;;;;;36.20;20.53;;;1.40;91.10;;;;;;5076957;28;20468;-83
2020/12/11 05:18:36;;;;;;;38.43;20.47;;;1.40;91.10;;;;;;5076931;28;20028;-84
2020/12/11 05:21:15;;;;;;;33.47;19.80;;;1.30;91.10;;;;;;5059079;28;20463;-83
2020/12/11 05:23:58;;;;;;;36.70;18.97;;;1.40;91.10;;;;;;5076844;28;20029;-82
2020/12/11 05:26:25;;;;;;;35.47;19.60;;;1.40;91.40;;;;;;5075531;28;20455;-84
2020/12/11 05:28:50;;;;;;;39.40;21.53;;;1.40;91.10;;;;;;5076714;28;20033;-83
2020/12/11 05:31:16;;;;;;;38.53;20.77;;;1.40;91.20;;;;;;5075248;28;20040;-83
2020/12/11 05:34:00;;;;;;;35.37;19.30;;;1.40;91.20;;;;;;5058618;28;20028;-83
2020/12/11 05:36:26;;;;;;;33.90;19.67;;;1.50;91.30;;;;;;5075017;28;20468;-83
2020/12/11 05:38:52;;;;;;;32.63;19.63;;;1.50;91.40;;;;;;5041979;28;20039;-83
2020/12/11 05:41:37;;;;;;;33.83;19.60;;;1.60;91.40;;;;;;5058246;28;20061;-76
2020/12/11 05:44:21;;;;;;;33.47;18.97;;;1.60;91.40;;;;;;5076358;28;20032;-75
2020/12/11 05:46:46;;;;;;;34.20;17.70;;;1.70;91.40;;;;;;5076191;28;20425;-75
2020/12/11 05:49:23;;;;;;;30.60;17.17;;;1.70;91.60;;;;;;5075132;28;20032;-76
2020/12/11 05:52:10;;;;;;;30.27;18.80;;;1.80;91.40;;;;;;5058206;28;20042;-75
2020/12/11 05:54:48;;;;;;;29.87;17.17;;;1.90;91.40;;;;;;5075749;28;20048;-75
2020/12/11 05:57:16;;;;;;;29.33;16.57;;;1.90;91.40;;;;;;5074743;28;20480;-75
2020/12/11 05:59:43;;;;;;;33.67;18.50;;;2.00;91.30;;;;;;5058067;28;20472;-75
2020/12/11 06:02:16;;;;;;;34.00;18.50;;;1.90;91.20;;;;;;5058278;28;20082;-76
2020/12/11 06:04:43;;;;;;;29.60;17.97;;;2.00;91.20;;;;;;5058520;28;20028;-75
2020/12/11 06:07:14;;;;;;;31.50;19.20;;;2.00;91.10;;;;;;5075745;28;20376;-75
2020/12/11 06:09:44;;;;;;;32.07;18.27;;;2.10;91.00;;;;;;5074576;28;20032;-76
2020/12/11 06:12:11;;;;;;;32.20;18.07;;;2.20;91.00;;;;;;5075707;28;20031;-75
2020/12/11 06:14:44;;;;;;;31.90;17.70;;;2.20;90.90;;;;;;5058194;28;20112;-83
2020/12/11 06:17:11;;;;;;;33.90;19.00;;;2.20;90.90;;;;;;5075963;28;20020;-84
2020/12/11 06:19:40;;;;;;;31.63;18.43;;;2.30;90.60;;;;;;5075959;28;20035;-83
2020/12/11 06:22:07;;;;;;;31.93;18.50;;;2.30;90.60;;;;;;5075900;28;20074;-83
2020/12/11 06:24:33;;;;;;;34.27;19.17;;;2.30;90.60;;;;;;5058166;28;20021;-84
2020/12/11 06:27:00;;;;;;;31.03;17.80;;;2.30;90.50;;;;;;5074532;28;20135;-83
2020/12/11 06:29:28;;;;;;;36.03;18.77;;;2.30;90.50;;;;;;5075464;28;20029;-82
2020/12/11 06:31:54;;;;;;;34.10;19.20;;;2.40;90.50;;;;;;5075088;28;20029;-83
2020/12/11 06:34:21;;;;;;;30.77;18.67;;;2.40;90.40;;;;;;5075843;28;20055;-83
2020/12/11 06:36:48;;;;;;;32.90;18.57;;;2.40;90.30;;;;;;5057767;28;20021;-83
2020/12/11 06:39:46;;;;;;;33.10;18.83;;;2.40;90.30;;;;;;5074949;28;20062;-83
2020/12/11 06:42:39;;;;;;;33.87;18.97;;;2.50;90.30;;;;;;5074548;28;20024;-83
2020/12/11 06:45:22;;;;;;;30.80;18.20;;;2.50;90.20;;;;;;5075523;28;20028;-83
2020/12/11 06:47:53;;;;;;;28.10;16.70;;;2.50;90.10;;;;;;5074065;28;20119;-83
2020/12/11 06:50:20;;;;;;;30.37;18.33;;;2.50;90.00;;;;;;5058713;28;20468;-83
2020/12/11 06:52:46;;;;;;;28.33;17.00;;;2.60;89.70;;;;;;5074378;28;20025;-83
2020/12/11 06:55:12;;;;;;;33.00;19.23;;;2.60;89.80;;;;;;5075198;28;20119;-84
2020/12/11 06:57:40;;;;;;;29.70;17.77;;;2.60;89.60;;;;;;5075695;28;20028;-84
2020/12/11 07:00:30;;;;;;;29.93;17.97;;;2.60;89.60;;;;;;5074382;28;20033;-83
2020/12/11 07:03:19;;;;;;;29.77;17.50;;;2.60;89.30;;;;;;5074499;28;20024;-84
2020/12/11 07:05:45;;;;;;;26.73;16.23;;;2.60;89.10;;;;;;5073852;28;20085;-84
2020/12/11 07:08:15;;;;;;;32.47;18.00;;;2.60;89.00;;;;;;5040555;28;20025;-83
2020/12/11 07:10:43;;;;;;;28.70;17.07;;;2.60;88.90;;;;;;5074553;28;20380;-82
2020/12/11 07:13:10;;;;;;;29.67;17.23;;;2.60;88.80;;;;;;5073290;28;20024;-82
2020/12/11 07:15:36;;;;;;;29.80;16.83;;;2.70;89.00;;;;;;5056996;28;20028;-83
2020/12/11 07:18:03;;;;;;;27.47;16.37;;;2.70;89.00;;;;;;5056880;28;20029;-83
2020/12/11 07:20:29;;;;;;;27.50;16.20;;;2.70;89.10;;;;;;5073420;28;20028;-83
2020/12/11 07:22:59;;;;;;;27.40;15.70;;;2.70;89.00;;;;;;5073070;28;20025;-82
2020/12/11 07:25:27;;;;;;;29.00;16.27;;;2.70;88.90;;;;;;5073014;28;20029;-83
2020/12/11 07:27:57;;;;;;;29.33;17.87;;;2.80;88.90;;;;;;5079284;28;20044;-82
2020/12/11 07:30:22;;;;;;;32.00;16.90;;;2.70;88.50;;;;;;5085163;28;20535;-83
2020/12/11 07:32:52;;;;;;;28.67;16.43;;;2.80;88.50;;;;;;5053497;28;20055;-83
2020/12/11 07:35:19;;;;;;;27.53;17.07;;;2.80;88.40;;;;;;5089647;28;20043;-82
2020/12/11 07:38:04;;;;;;;27.87;16.53;;;2.80;88.50;;;;;;5089231;28;20028;-83
2020/12/11 07:40:30;;;;;;;;;;;2.80;88.40;;;;;;5090476;28;20106;-82
2020/12/11 07:42:55;;;;;;;26.47;15.83;;;2.90;88.10;;;;;;5088599;28;19913;-82
2020/12/11 07:45:26;;;;;;;26.33;16.10;;;2.90;87.80;;;;;;5089939;28;20033;-83
2020/12/11 07:47:53;;;;;;;26.80;16.37;;;2.90;87.50;;;;;;5075409;28;20038;-81
2020/12/11 07:50:27;;;;;;;27.67;16.37;;;2.90;87.80;;;;;;5071708;28;20450;-84
2020/12/11 07:52:54;;;;;;;;;;;2.90;87.80;;;;;;5073172;28;20070;-82
2020/12/11 07:55:23;;;;;;;29.23;16.73;;;2.90;87.60;;;;;;5060402;28;20322;-81
2020/12/11 07:57:53;;;;;;;26.83;15.63;;;2.90;87.40;;;;;;5041185;28;20074;-82
2020/12/11 08:00:20;;;;;;;29.43;17.03;;;3.00;87.50;;;;;;5072495;28;20017;-82
2020/12/11 08:03:04;;;;;;;30.63;16.67;;;3.00;87.50;;;;;;5065507;28;20029;-82
2020/12/11 08:05:30;;;;;;;27.80;15.88;;;3.00;87.20;;;;;;5053838;28;20052;-82
2020/12/11 08:07:56;;;;;;;25.13;15.07;;;3.00;87.20;;;;;;5052408;28;20029;-82
2020/12/11 08:10:23;;;;;;;24.00;15.63;;;3.10;87.20;;;;;;5061462;28;20036;-83
2020/12/11 08:12:50;;;;;;;28.13;15.93;;;3.10;87.20;;;;;;5072389;28;20031;-82
2020/12/11 08:15:29;;;;;;;24.23;15.43;;;3.10;87.10;;;;;;5063893;28;20078;-74
2020/12/11 08:18:26;;;;;;;28.63;16.90;;;3.10;87.20;;;;;;5076500;28;20111;-75
2020/12/11 08:20:56;;;;;;;27.27;15.53;;;3.20;87.00;;;;;;5052024;28;20108;-75
2020/12/11 08:23:45;;;;;;;24.00;14.57;;;3.20;86.90;;;;;;5067455;28;20033;-75
2020/12/11 08:26:19;;;;;;;24.90;15.30;;;3.20;87.10;;;;;;5073356;28;20037;-75
2020/12/11 08:28:48;;;;;;;24.93;15.63;;;3.20;86.90;;;;;;5073135;28;20468;-74
2020/12/11 08:31:20;;;;;;;29.13;15.37;;;3.20;86.90;;;;;;5071872;28;20361;-74
2020/12/11 08:33:48;;;;;;;27.07;17.17;;;3.20;86.80;;;;;;5073584;28;20025;-75
2020/12/11 08:36:22;;;;;;;26.27;14.50;;;3.30;86.60;;;;;;5055777;28;20111;-75
2020/12/11 08:39:12;;;;;;;23.83;15.43;;;3.30;86.80;;;;;;5073405;28;20024;-75
2020/12/11 08:41:42;;;;;;;26.40;15.63;;;3.30;86.60;;;;;;5072004;28;20021;-75
2020/12/11 08:44:19;;;;;;;26.37;15.87;;;3.30;86.30;;;;;;5072210;28;20380;-75
2020/12/11 08:50:03;;;;;;;28.27;16.40;;;3.30;86.40;;;;;;5059625;28;20079;-74
2020/12/11 08:52:29;;;;;;;25.03;13.90;;;3.40;86.50;;;;;;5055720;28;20033;-75
2020/12/11 08:54:56;;;;;;;23.77;13.93;;;3.40;86.30;;;;;;5048975;28;20508;-75
2020/12/11 08:57:23;;;;;;;24.50;14.53;;;3.40;86.40;;;;;;5055285;28;20025;-75
2020/12/11 08:59:49;;;;;;;27.10;15.30;;;3.40;86.40;;;;;;5072947;28;20035;-75
2020/12/11 09:02:14;;;;;;;30.07;17.07;;;3.30;86.40;;;;;;5070456;28;20491;-75
2020/12/11 09:04:40;;;;;;;23.67;14.37;;;3.50;86.20;;;;;;5072133;28;20056;-75
2020/12/11 09:07:05;;;;;;;27.87;15.77;;;3.50;86.40;;;;;;5071430;28;20526;-76
2020/12/11 09:09:31;;;;;;;26.03;15.13;;;3.50;86.20;;;;;;5055558;28;20074;-74
2020/12/11 09:11:56;;;;;;;23.07;14.40;;;3.50;86.20;;;;;;5071909;28;20029;-75
2020/12/11 09:14:22;;;;;;;22.87;14.53;;;3.50;86.40;;;;;;5071859;28;20028;-74
2020/12/11 09:16:48;;;;;;;24.87;14.33;;;3.50;86.60;;;;;;5072714;28;20025;-76
2020/12/11 09:19:14;;;;;;;24.13;13.93;;;3.50;86.80;;;;;;5055036;28;20078;-77
2020/12/11 09:21:40;;;;;;;28.03;16.63;;;3.50;87.00;;;;;;5071901;28;20120;-75
2020/12/11 09:24:06;;;;;;;26.20;16.30;;;3.50;87.20;;;;;;5054944;28;20055;-75
2020/12/11 09:26:32;;;;;;;28.17;15.63;;;3.60;87.50;;;;;;5072789;28;20178;-76
2020/12/11 09:29:24;;;;;;;26.03;15.00;;;3.50;87.70;;;;;;5026134;28;20143;-76
2020/12/11 09:31:49;;;;;;;25.87;14.63;;;3.50;87.80;;;;;;5054019;28;20078;-76
2020/12/11 09:34:15;;;;;;;27.57;15.80;;;3.50;88.00;;;;;;5055119;28;20029;-76
2020/12/11 09:36:43;;;;;;;22.83;14.00;;;3.60;88.20;;;;;;5056413;28;20098;-76
2020/12/11 09:39:10;;;;;;;27.50;15.43;;;3.50;88.30;;;;;;5038607;28;20017;-76
2020/12/11 09:41:37;;;;;;;23.70;14.50;;;3.60;88.40;;;;;;5038921;28;20032;-76
2020/12/11 09:46:45;;;;;;;24.40;14.73;;;3.60;88.60;;;;;;5055371;28;20124;-75
2020/12/11 09:49:18;;;;;;;25.33;14.90;;;3.70;88.70;;;;;;5024989;28;20021;-76
2020/12/11 09:56:49;;;;;;;26.23;15.03;;;3.70;88.80;;;;;;5055164;28;20029;-75
2020/12/11 09:59:29;;;;;;;23.07;14.40;;;3.80;88.90;;;;;;5054902;28;20037;-75
2020/12/11 10:02:08;;;;;;;25.43;14.87;;;3.80;88.80;;;;;;5056589;28;20117;-75
2020/12/11 10:04:33;;;;;;;25.20;14.73;;;3.80;88.70;;;;;;5039472;28;20090;-75
2020/12/11 10:06:59;;;;;;;26.53;15.40;;;3.90;88.70;;;;;;5054700;28;20545;-75
2020/12/11 10:09:25;;;;;;;22.57;14.03;;;3.90;88.60;;;;;;5037991;28;20033;-75
2020/12/11 10:11:52;;;;;;;24.37;14.63;;;4.00;88.50;;;;;;5037890;28;20025;-76
2020/12/11 10:16:53;;;;;;;23.63;14.83;;;4.00;88.30;;;;;;5054910;28;20507;-77
2020/12/11 10:19:22;;;;;;;21.83;14.30;;;4.10;88.10;;;;;;5054558;28;20029;-76
2020/12/11 10:21:55;;;;;;;23.13;14.57;;;4.10;87.90;;;;;;5054339;28;20090;-76
2020/12/11 10:24:21;;;;;;;21.57;13.73;;;4.20;88.00;;;;;;5037727;28;20057;-76
2020/12/11 10:26:47;;;;;;;27.80;15.17;;;4.20;88.40;;;;;;5055440;28;20040;-76
2020/12/11 10:29:13;;;;;;;22.07;13.87;;;4.20;87.30;;;;;;5037574;28;20029;-76
2020/12/11 10:31:42;;;;;;;21.43;14.30;;;4.30;87.50;;;;;;5054112;28;20354;-76
2020/12/11 10:34:09;;;;;;;23.70;15.00;;;4.30;87.60;;;;;;5037809;28;20465;-76
2020/12/11 10:36:34;;;;;;;23.50;14.77;;;4.40;87.40;;;;;;5037256;28;20039;-76
2020/12/11 10:39:00;;;;;;;24.97;14.67;;;4.40;87.50;;;;;;5054182;28;20128;-76
2020/12/11 10:41:26;;;;;;;23.23;14.13;;;4.40;87.40;;;;;;5036871;28;20033;-76
2020/12/11 10:43:53;;;;;;;25.53;15.03;;;4.40;87.70;;;;;;5053816;28;20358;-76
2020/12/11 10:46:18;;;;;;;23.63;14.63;;;4.50;87.00;;;;;;5055231;28;20035;-76
2020/12/11 10:48:44;;;;;;;23.73;15.67;;;4.50;87.00;;;;;;5020876;28;20498;-76
2020/12/11 10:51:14;;;;;;;25.43;14.30;;;4.50;86.80;;;;;;5053748;28;20086;-76
2020/12/11 10:53:42;;;;;;;21.03;13.80;;;4.60;86.90;;;;;;5053592;28;20477;-76
2020/12/11 10:56:08;;;;;;;24.90;14.90;;;4.60;87.10;;;;;;5054710;28;20033;-76
2020/12/11 10:58:35;;;;;;;23.47;14.70;;;4.50;87.10;;;;;;5036780;28;20029;-76
2020/12/11 11:01:10;;;;;;;23.63;13.83;;;4.50;87.10;;;;;;5053275;28;20132;-76
2020/12/11 11:03:37;;;;;;;21.80;14.27;;;4.60;87.30;;;;;;5053533;28;20021;-77
2020/12/11 11:06:22;;;;;;;26.17;14.40;;;4.60;87.50;;;;;;5054759;28;20025;-75
2020/12/11 11:11:24;;;;;;;25.07;15.07;;;4.60;87.90;;;;;;5037360;28;20029;-75
2020/12/11 11:14:07;;;;;;;18.98;11.00;;;4.60;87.90;;;;;;5041070;28;20017;-76
2020/12/11 11:29:56;;;;;;;23.80;13.73;;;4.70;89.00;;;;;;5074704;28;20038;-76
2020/12/11 11:32:21;;;;;;;20.60;13.50;;;4.70;89.00;;;;;;5072953;28;20461;-75
2020/12/11 11:34:47;;;;;;;22.53;13.90;;;4.70;89.10;;;;;;5050430;28;20032;-83
2020/12/11 11:37:13;;;;;;;23.17;13.77;;;4.70;89.10;;;;;;5031885;28;20048;-82
2020/12/11 11:39:39;;;;;;;23.67;13.97;;;4.70;89.30;;;;;;5072696;28;20021;-83
2020/12/11 11:42:05;;;;;;;21.50;13.57;;;4.80;89.50;;;;;;5072674;28;20107;-84
2020/12/11 11:47:03;;;;;;;21.83;13.87;;;4.80;89.60;;;;;;5057540;28;20032;-83
2020/12/11 11:49:36;;;;;;;23.37;14.03;;;4.80;89.70;;;;;;5055917;28;20112;-83
2020/12/11 11:54:46;;;;;;;23.58;15.15;;;4.80;89.90;;;;;;5071979;28;20130;-82
2020/12/11 11:57:12;;;;;;;24.67;15.37;;;4.80;90.00;;;;;;5072731;28;20475;-81
2020/12/11 11:59:37;;;;;;;21.90;13.57;;;4.80;90.10;;;;;;5072439;28;20471;-81
2020/12/11 12:02:03;;;;;;;19.53;13.00;;;4.80;90.10;;;;;;5071322;28;20028;-82
2020/12/11 12:04:29;;;;;;;22.20;14.77;;;4.80;90.10;;;;;;5056063;28;20028;-82
2020/12/11 12:06:56;;;;;;;24.10;15.40;;;4.80;90.20;;;;;;5056106;28;20586;-82
2020/12/11 12:09:21;;;;;;;23.43;14.70;;;4.80;90.30;;;;;;5072756;28;20448;-83
2020/12/11 12:11:47;;;;;;;26.23;16.53;;;4.90;90.30;;;;;;5055649;28;20024;-82
2020/12/11 12:14:12;;;;;;;25.63;15.70;;;4.80;90.40;;;;;;5039252;28;20388;-82
2020/12/11 12:16:39;;;;;;;21.70;14.47;;;4.80;90.40;;;;;;5052360;28;20052;-82
2020/12/11 12:19:10;;;;;;;21.67;13.83;;;4.80;90.50;;;;;;5052435;28;20032;-81
2020/12/11 12:29:33;;;;;;;23.33;14.77;;;4.80;90.70;;;;;;5054049;28;20086;-76
2020/12/11 12:32:05;;;;;;;25.23;14.50;;;4.80;90.80;;;;;;5053286;28;20025;-76
2020/12/11 12:42:39;;;;;;;22.23;14.13;;;4.90;90.90;;;;;;5042056;28;20082;-76
2020/12/11 12:45:06;;;;;;;25.60;13.85;;;4.90;90.90;;;;;;5052111;28;20035;-76
2020/12/11 12:47:32;;;;;;;23.27;13.90;;;5.00;90.90;;;;;;5051919;28;20025;-76
2020/12/11 12:49:59;;;;;;;22.03;14.03;;;5.00;90.90;;;;;;5053305;28;20028;-76
2020/12/11 12:52:25;;;;;;;21.73;13.20;;;5.00;90.90;;;;;;5052052;28;20053;-76
2020/12/11 12:54:51;;;;;;;20.23;12.97;;;5.00;90.90;;;;;;5053029;28;20088;-76
2020/12/11 12:58:01;;;;;;;20.57;12.60;;;5.00;90.80;;;;;;5053540;28;20036;-76
2020/12/11 13:05:16;;;;;;;20.97;12.37;;;5.10;90.90;;;;;;5055600;28;20045;-77
2020/12/11 13:07:42;;;;;;;20.97;13.60;;;5.10;90.90;;;;;;5056036;28;20029;-76
2020/12/11 13:10:08;;;;;;;20.03;12.37;;;5.10;90.90;;;;;;5057409;28;20440;-76
2020/12/11 13:12:34;;;;;;;18.40;12.07;;;5.10;91.20;;;;;;5056911;28;20502;-76
2020/12/11 13:14:59;;;;;;;21.60;11.93;;;5.20;90.90;;;;;;5056976;28;20025;-76
2020/12/11 13:17:25;;;;;;;19.43;12.33;;;5.10;90.90;;;;;;5055678;28;20384;-76
2020/12/11 13:19:51;;;;;;;21.80;12.53;;;5.20;90.90;;;;;;5038986;28;20029;-76
2020/12/11 13:27:36;;;;;;;18.65;11.63;;;5.20;90.90;;;;;;5057116;28;20036;-77
2020/12/11 13:30:02;;;;;;;19.47;12.17;;;5.20;91.10;;;;;;5055592;28;20037;-76
2020/12/11 13:32:28;;;;;;;24.73;12.83;;;5.30;90.80;;;;;;5055464;28;20029;-76
2020/12/11 13:34:54;;;;;;;20.57;12.73;;;5.40;90.90;;;;;;5055780;28;20083;-76
2020/12/11 13:37:20;;;;;;;20.67;12.13;;;5.30;90.80;;;;;;5067698;28;20028;-76
2020/12/11 13:39:46;;;;;;;16.40;10.57;;;5.30;90.90;;;;;;5075124;28;20116;-76
2020/12/11 13:42:12;;;;;;;17.30;10.57;;;5.30;91.10;;;;;;5075416;28;20476;-76
2020/12/11 13:44:38;;;;;;;16.17;10.20;;;5.30;90.80;;;;;;5075167;28;20036;-77